sensor_id;sensor_type;location;lat;lon;timestamp;temperature;humidity
11736;DHT22;5924;51.398;7.088;2022-10-19T00:00:16;6.00;99.90
11736;DHT22;5924;51.398;7.088;2022-10-19T00:09:51;5.90;99.90
11736;DHT22;5924;51.398;7.088;2022-10-19T00:12:17;5.80;99.90
11736;DHT22;5924;51.398;7.088;2022-10-19T00:14:42;5.80;99.90
11736;DHT22;5924;51.398;7.088;2022-10-19T00:17:08;5.80;99.90
11736;DHT22;5924;51.398;7.088;2022-10-19T00:19:34;5.80;99.90
11736;DHT22;5924;51.398;7.088;2022-10-19T00:21:59;5.80;99.90
11736;DHT22;5924;51.398;7.088;2022-10-19T00:24:25;5.80;99.90
11736;DHT22;5924;51.398;7.088;2022-10-19T00:26:50;5.90;99.90
11736;DHT22;5924;51.398;7.088;2022-10-19T00:29:16;5.80;99.90
11736;DHT22;5924;51.398;7.088;2022-10-19T00:31:42;5.80;99.90
11736;DHT22;5924;51.398;7.088;2022-10-19T00:34:08;6.30;99.90
11736;DHT22;5924;51.398;7.088;2022-10-19T00:36:37;6.60;99.90
11736;DHT22;5924;51.398;7.088;2022-10-19T00:39:05;5.60;99.90
11736;DHT22;5924;51.398;7.088;2022-10-19T00:41:32;5.60;99.90
11736;DHT22;5924;51.398;7.088;2022-10-19T00:46:33;5.50;99.90
11736;DHT22;5924;51.398;7.088;2022-10-19T00:49:12;5.50;99.90
11736;DHT22;5924;51.398;7.088;2022-10-19T00:51:41;5.50;99.90
11736;DHT22;5924;51.398;7.088;2022-10-19T00:54:09;5.50;99.90
11736;DHT22;5924;51.398;7.088;2022-10-19T00:56:38;5.50;99.90
11736;DHT22;5924;51.398;7.088;2022-10-19T00:59:04;5.40;99.90
11736;DHT22;5924;51.398;7.088;2022-10-19T01:01:32;5.40;99.90
11736;DHT22;5924;51.398;7.088;2022-10-19T01:03:58;5.30;99.90
11736;DHT22;5924;51.398;7.088;2022-10-19T01:06:24;5.30;99.90
11736;DHT22;5924;51.398;7.088;2022-10-19T01:08:51;5.30;99.90
11736;DHT22;5924;51.398;7.088;2022-10-19T01:16:46;5.30;99.90
11736;DHT22;5924;51.398;7.088;2022-10-19T01:27:33;5.20;99.90
11736;DHT22;5924;51.398;7.088;2022-10-19T01:43:36;7.90;99.90
11736;DHT22;5924;51.398;7.088;2022-10-19T01:46:10;4.90;99.90
11736;DHT22;5924;51.398;7.088;2022-10-19T01:48:40;4.90;99.90
11736;DHT22;5924;51.398;7.088;2022-10-19T01:51:19;4.80;99.90
11736;DHT22;5924;51.398;7.088;2022-10-19T01:53:51;4.90;99.90
11736;DHT22;5924;51.398;7.088;2022-10-19T01:56:22;4.80;99.90
11736;DHT22;5924;51.398;7.088;2022-10-19T01:58:49;4.80;99.90
11736;DHT22;5924;51.398;7.088;2022-10-19T02:01:18;4.70;99.90
11736;DHT22;5924;51.398;7.088;2022-10-19T02:03:45;4.70;99.90
11736;DHT22;5924;51.398;7.088;2022-10-19T02:06:12;4.70;99.90
11736;DHT22;5924;51.398;7.088;2022-10-19T02:08:45;4.60;99.90
11736;DHT22;5924;51.398;7.088;2022-10-19T02:11:12;4.60;99.90
11736;DHT22;5924;51.398;7.088;2022-10-19T02:13:39;4.60;99.90
11736;DHT22;5924;51.398;7.088;2022-10-19T02:16:08;4.60;99.90
11736;DHT22;5924;51.398;7.088;2022-10-19T02:18:42;4.70;99.90
11736;DHT22;5924;51.398;7.088;2022-10-19T02:21:09;4.70;99.90
11736;DHT22;5924;51.398;7.088;2022-10-19T02:23:35;4.70;99.90
11736;DHT22;5924;51.398;7.088;2022-10-19T02:26:01;4.70;99.90
11736;DHT22;5924;51.398;7.088;2022-10-19T02:28:28;4.70;99.90
11736;DHT22;5924;51.398;7.088;2022-10-19T02:30:55;4.60;99.90
11736;DHT22;5924;51.398;7.088;2022-10-19T02:33:21;4.60;99.90
11736;DHT22;5924;51.398;7.088;2022-10-19T02:35:47;4.50;99.90
11736;DHT22;5924;51.398;7.088;2022-10-19T02:38:15;4.50;99.90
11736;DHT22;5924;51.398;7.088;2022-10-19T02:40:47;4.50;99.90
11736;DHT22;5924;51.398;7.088;2022-10-19T02:43:14;4.50;99.90
11736;DHT22;5924;51.398;7.088;2022-10-19T02:45:53;4.40;99.90
11736;DHT22;5924;51.398;7.088;2022-10-19T02:48:22;4.40;99.90
11736;DHT22;5924;51.398;7.088;2022-10-19T02:50:48;4.30;99.90
11736;DHT22;5924;51.398;7.088;2022-10-19T02:53:16;4.30;99.90
11736;DHT22;5924;51.398;7.088;2022-10-19T02:55:42;4.30;99.90
11736;DHT22;5924;51.398;7.088;2022-10-19T02:58:08;4.30;99.90
11736;DHT22;5924;51.398;7.088;2022-10-19T03:00:34;4.30;99.90
11736;DHT22;5924;51.398;7.088;2022-10-19T03:02:59;4.20;99.90
11736;DHT22;5924;51.398;7.088;2022-10-19T03:05:27;4.20;99.90
11736;DHT22;5924;51.398;7.088;2022-10-19T03:07:53;4.20;99.90
11736;DHT22;5924;51.398;7.088;2022-10-19T03:10:18;4.10;99.90
11736;DHT22;5924;51.398;7.088;2022-10-19T03:12:44;4.10;99.90
11736;DHT22;5924;51.398;7.088;2022-10-19T03:15:14;4.10;99.90
11736;DHT22;5924;51.398;7.088;2022-10-19T03:17:40;4.10;99.90
11736;DHT22;5924;51.398;7.088;2022-10-19T03:20:06;4.10;99.90
11736;DHT22;5924;51.398;7.088;2022-10-19T03:22:32;4.10;99.90
11736;DHT22;5924;51.398;7.088;2022-10-19T03:24:58;4.10;99.90
11736;DHT22;5924;51.398;7.088;2022-10-19T03:27:23;4.10;99.90
11736;DHT22;5924;51.398;7.088;2022-10-19T03:29:49;3.70;99.90
11736;DHT22;5924;51.398;7.088;2022-10-19T03:32:15;4.20;99.90
11736;DHT22;5924;51.398;7.088;2022-10-19T03:34:40;4.20;99.90
11736;DHT22;5924;51.398;7.088;2022-10-19T03:37:06;4.20;99.90
11736;DHT22;5924;51.398;7.088;2022-10-19T03:39:33;4.30;99.90
11736;DHT22;5924;51.398;7.088;2022-10-19T03:41:59;4.10;99.90
11736;DHT22;5924;51.398;7.088;2022-10-19T03:44:25;4.10;99.90
11736;DHT22;5924;51.398;7.088;2022-10-19T03:46:50;4.00;99.90
11736;DHT22;5924;51.398;7.088;2022-10-19T03:49:16;3.90;99.90
11736;DHT22;5924;51.398;7.088;2022-10-19T03:51:42;3.90;99.90
11736;DHT22;5924;51.398;7.088;2022-10-19T03:54:12;3.80;99.90
11736;DHT22;5924;51.398;7.088;2022-10-19T03:56:38;3.80;99.90
11736;DHT22;5924;51.398;7.088;2022-10-19T03:59:04;3.80;99.90
11736;DHT22;5924;51.398;7.088;2022-10-19T04:01:37;4.50;99.90
11736;DHT22;5924;51.398;7.088;2022-10-19T04:04:05;3.80;99.90
11736;DHT22;5924;51.398;7.088;2022-10-19T04:06:34;3.70;99.90
11736;DHT22;5924;51.398;7.088;2022-10-19T04:09:00;3.80;99.90
11736;DHT22;5924;51.398;7.088;2022-10-19T04:11:28;3.70;99.90
11736;DHT22;5924;51.398;7.088;2022-10-19T04:13:55;3.70;99.90
11736;DHT22;5924;51.398;7.088;2022-10-19T04:16:22;3.70;99.90
11736;DHT22;5924;51.398;7.088;2022-10-19T04:18:49;3.70;99.90
11736;DHT22;5924;51.398;7.088;2022-10-19T04:21:25;3.60;99.90
11736;DHT22;5924;51.398;7.088;2022-10-19T04:23:53;3.60;99.90
11736;DHT22;5924;51.398;7.088;2022-10-19T04:26:19;3.60;99.90
11736;DHT22;5924;51.398;7.088;2022-10-19T04:28:45;3.60;99.90
11736;DHT22;5924;51.398;7.088;2022-10-19T04:31:11;3.50;99.90
11736;DHT22;5924;51.398;7.088;2022-10-19T04:33:37;3.50;99.90
11736;DHT22;5924;51.398;7.088;2022-10-19T04:36:05;3.50;99.90
11736;DHT22;5924;51.398;7.088;2022-10-19T04:38:32;3.60;99.90
11736;DHT22;5924;51.398;7.088;2022-10-19T04:41:02;3.60;99.90
11736;DHT22;5924;51.398;7.088;2022-10-19T04:43:28;3.60;99.90
11736;DHT22;5924;51.398;7.088;2022-10-19T04:45:54;3.60;99.90
11736;DHT22;5924;51.398;7.088;2022-10-19T04:48:20;3.50;99.90
11736;DHT22;5924;51.398;7.088;2022-10-19T04:50:46;3.50;99.90
11736;DHT22;5924;51.398;7.088;2022-10-19T04:53:12;3.50;99.90
11736;DHT22;5924;51.398;7.088;2022-10-19T04:55:41;3.40;99.90
11736;DHT22;5924;51.398;7.088;2022-10-19T04:58:07;3.40;99.90
11736;DHT22;5924;51.398;7.088;2022-10-19T05:00:33;3.30;99.90
11736;DHT22;5924;51.398;7.088;2022-10-19T05:02:58;3.20;99.90
11736;DHT22;5924;51.398;7.088;2022-10-19T05:05:24;3.20;99.90
11736;DHT22;5924;51.398;7.088;2022-10-19T05:07:51;3.40;99.90
11736;DHT22;5924;51.398;7.088;2022-10-19T05:10:17;3.40;99.90
11736;DHT22;5924;51.398;7.088;2022-10-19T05:12:42;3.40;99.90
11736;DHT22;5924;51.398;7.088;2022-10-19T05:15:08;3.50;99.90
11736;DHT22;5924;51.398;7.088;2022-10-19T05:17:34;3.60;99.90
11736;DHT22;5924;51.398;7.088;2022-10-19T05:20:00;3.70;99.90
11736;DHT22;5924;51.398;7.088;2022-10-19T05:22:25;3.70;99.90
11736;DHT22;5924;51.398;7.088;2022-10-19T05:24:51;3.70;99.90
11736;DHT22;5924;51.398;7.088;2022-10-19T05:27:17;3.70;99.90
11736;DHT22;5924;51.398;7.088;2022-10-19T05:29:42;3.60;99.90
11736;DHT22;5924;51.398;7.088;2022-10-19T05:32:08;3.60;99.90
11736;DHT22;5924;51.398;7.088;2022-10-19T05:34:33;3.50;99.90
11736;DHT22;5924;51.398;7.088;2022-10-19T05:36:59;3.50;99.90
11736;DHT22;5924;51.398;7.088;2022-10-19T05:39:25;0.90;99.90
11736;DHT22;5924;51.398;7.088;2022-10-19T05:41:51;3.30;99.90
11736;DHT22;5924;51.398;7.088;2022-10-19T05:44:19;3.20;99.90
11736;DHT22;5924;51.398;7.088;2022-10-19T05:46:45;3.20;99.90
11736;DHT22;5924;51.398;7.088;2022-10-19T05:49:12;3.20;99.90
11736;DHT22;5924;51.398;7.088;2022-10-19T05:51:38;3.20;99.90
11736;DHT22;5924;51.398;7.088;2022-10-19T05:54:04;3.20;99.90
11736;DHT22;5924;51.398;7.088;2022-10-19T05:56:30;3.20;99.90
11736;DHT22;5924;51.398;7.088;2022-10-19T05:58:57;3.20;99.90
11736;DHT22;5924;51.398;7.088;2022-10-19T06:01:24;3.20;99.90
11736;DHT22;5924;51.398;7.088;2022-10-19T06:03:56;3.30;99.90
11736;DHT22;5924;51.398;7.088;2022-10-19T06:06:22;3.40;99.90
11736;DHT22;5924;51.398;7.088;2022-10-19T06:08:49;3.40;99.90
11736;DHT22;5924;51.398;7.088;2022-10-19T06:11:18;3.50;99.90
11736;DHT22;5924;51.398;7.088;2022-10-19T06:13:45;3.50;99.90
11736;DHT22;5924;51.398;7.088;2022-10-19T06:16:12;3.50;99.90
11736;DHT22;5924;51.398;7.088;2022-10-19T06:18:38;3.60;99.90
11736;DHT22;5924;51.398;7.088;2022-10-19T06:21:07;3.70;99.90
11736;DHT22;5924;51.398;7.088;2022-10-19T06:23:33;3.80;99.90
11736;DHT22;5924;51.398;7.088;2022-10-19T06:26:02;3.90;99.90
11736;DHT22;5924;51.398;7.088;2022-10-19T06:28:28;3.90;99.90
11736;DHT22;5924;51.398;7.088;2022-10-19T06:30:53;4.00;99.90
11736;DHT22;5924;51.398;7.088;2022-10-19T06:33:21;4.10;99.90
11736;DHT22;5924;51.398;7.088;2022-10-19T06:35:46;4.10;99.90
11736;DHT22;5924;51.398;7.088;2022-10-19T06:38:12;4.20;99.90
11736;DHT22;5924;51.398;7.088;2022-10-19T06:40:38;4.30;99.90
11736;DHT22;5924;51.398;7.088;2022-10-19T06:43:04;4.30;99.90
11736;DHT22;5924;51.398;7.088;2022-10-19T06:45:29;4.40;99.90
11736;DHT22;5924;51.398;7.088;2022-10-19T06:47:55;4.50;99.90
11736;DHT22;5924;51.398;7.088;2022-10-19T06:50:21;4.60;99.90
11736;DHT22;5924;51.398;7.088;2022-10-19T06:52:47;4.70;99.90
11736;DHT22;5924;51.398;7.088;2022-10-19T06:55:12;4.80;99.90
11736;DHT22;5924;51.398;7.088;2022-10-19T06:57:38;4.80;99.90
11736;DHT22;5924;51.398;7.088;2022-10-19T07:00:05;4.90;99.90
11736;DHT22;5924;51.398;7.088;2022-10-19T07:02:31;5.00;99.90
11736;DHT22;5924;51.398;7.088;2022-10-19T07:04:57;5.10;99.90
11736;DHT22;5924;51.398;7.088;2022-10-19T07:07:23;5.10;99.90
11736;DHT22;5924;51.398;7.088;2022-10-19T07:09:49;5.10;99.90
11736;DHT22;5924;51.398;7.088;2022-10-19T07:12:14;5.20;99.90
11736;DHT22;5924;51.398;7.088;2022-10-19T07:14:40;5.30;99.90
11736;DHT22;5924;51.398;7.088;2022-10-19T07:17:06;5.20;99.90
11736;DHT22;5924;51.398;7.088;2022-10-19T07:19:32;5.30;99.90
11736;DHT22;5924;51.398;7.088;2022-10-19T07:21:58;7.00;99.90
11736;DHT22;5924;51.398;7.088;2022-10-19T07:24:24;5.20;99.90
11736;DHT22;5924;51.398;7.088;2022-10-19T07:26:49;5.20;99.90
11736;DHT22;5924;51.398;7.088;2022-10-19T07:29:15;5.20;99.90
11736;DHT22;5924;51.398;7.088;2022-10-19T07:31:41;5.30;99.90
11736;DHT22;5924;51.398;7.088;2022-10-19T07:34:10;5.40;99.90
11736;DHT22;5924;51.398;7.088;2022-10-19T07:36:36;5.50;99.90
11736;DHT22;5924;51.398;7.088;2022-10-19T07:39:03;5.60;99.90
11736;DHT22;5924;51.398;7.088;2022-10-19T07:41:30;5.80;99.90
11736;DHT22;5924;51.398;7.088;2022-10-19T07:43:56;5.90;99.90
11736;DHT22;5924;51.398;7.088;2022-10-19T07:46:24;6.00;99.90
11736;DHT22;5924;51.398;7.088;2022-10-19T07:48:52;6.10;99.90
11736;DHT22;5924;51.398;7.088;2022-10-19T07:51:18;6.20;99.90
11736;DHT22;5924;51.398;7.088;2022-10-19T07:53:44;6.40;99.90
11736;DHT22;5924;51.398;7.088;2022-10-19T07:56:13;6.50;99.90
11736;DHT22;5924;51.398;7.088;2022-10-19T07:58:39;6.60;99.90
11736;DHT22;5924;51.398;7.088;2022-10-19T08:01:07;6.70;99.90
11736;DHT22;5924;51.398;7.088;2022-10-19T08:03:34;6.80;99.90
11736;DHT22;5924;51.398;7.088;2022-10-19T08:06:01;8.60;99.90
11736;DHT22;5924;51.398;7.088;2022-10-19T08:08:27;6.90;99.90
11736;DHT22;5924;51.398;7.088;2022-10-19T08:10:52;7.10;99.90
11736;DHT22;5924;51.398;7.088;2022-10-19T08:13:18;7.20;99.90
11736;DHT22;5924;51.398;7.088;2022-10-19T08:15:44;7.30;99.90
11736;DHT22;5924;51.398;7.088;2022-10-19T08:18:10;7.40;99.90
11736;DHT22;5924;51.398;7.088;2022-10-19T08:20:36;7.50;99.90
11736;DHT22;5924;51.398;7.088;2022-10-19T08:23:01;7.60;99.90
11736;DHT22;5924;51.398;7.088;2022-10-19T08:25:27;8.90;99.90
11736;DHT22;5924;51.398;7.088;2022-10-19T08:27:53;7.60;99.90
11736;DHT22;5924;51.398;7.088;2022-10-19T08:30:18;7.60;99.90
11736;DHT22;5924;51.398;7.088;2022-10-19T08:32:44;7.80;99.90
11736;DHT22;5924;51.398;7.088;2022-10-19T08:35:10;6.00;99.90
11736;DHT22;5924;51.398;7.088;2022-10-19T08:37:35;8.00;99.90
11736;DHT22;5924;51.398;7.088;2022-10-19T08:40:01;8.00;99.90
11736;DHT22;5924;51.398;7.088;2022-10-19T08:47:58;8.30;99.90
11736;DHT22;5924;51.398;7.088;2022-10-19T08:50:39;8.40;99.90
11736;DHT22;5924;51.398;7.088;2022-10-19T08:53:14;8.50;99.90
11736;DHT22;5924;51.398;7.088;2022-10-19T09:01:36;8.90;99.90
11736;DHT22;5924;51.398;7.088;2022-10-19T09:09:14;9.40;99.90
11736;DHT22;5924;51.398;7.088;2022-10-19T09:11:49;9.50;99.90
11736;DHT22;5924;51.398;7.088;2022-10-19T09:14:34;10.70;99.90
11736;DHT22;5924;51.398;7.088;2022-10-19T09:17:16;9.70;99.90
11736;DHT22;5924;51.398;7.088;2022-10-19T09:19:42;9.70;99.90
11736;DHT22;5924;51.398;7.088;2022-10-19T09:22:20;9.20;99.90
11736;DHT22;5924;51.398;7.088;2022-10-19T09:24:50;9.90;99.90
11736;DHT22;5924;51.398;7.088;2022-10-19T09:27:23;10.00;99.90
11736;DHT22;5924;51.398;7.088;2022-10-19T09:30:03;10.10;99.90
11736;DHT22;5924;51.398;7.088;2022-10-19T09:32:36;10.10;99.90
11736;DHT22;5924;51.398;7.088;2022-10-19T09:35:23;10.20;99.90
11736;DHT22;5924;51.398;7.088;2022-10-19T09:37:51;11.70;99.90
11736;DHT22;5924;51.398;7.088;2022-10-19T09:40:23;10.30;99.90
11736;DHT22;5924;51.398;7.088;2022-10-19T09:42:49;10.40;99.90
11736;DHT22;5924;51.398;7.088;2022-10-19T09:47:56;10.60;99.90
11736;DHT22;5924;51.398;7.088;2022-10-19T09:50:28;10.70;99.90
11736;DHT22;5924;51.398;7.088;2022-10-19T09:52:58;10.90;99.90
11736;DHT22;5924;51.398;7.088;2022-10-19T09:55:42;10.90;99.90
11736;DHT22;5924;51.398;7.088;2022-10-19T09:58:17;11.10;99.90
11736;DHT22;5924;51.398;7.088;2022-10-19T10:00:49;11.20;99.90
11736;DHT22;5924;51.398;7.088;2022-10-19T10:05:55;11.30;99.90
11736;DHT22;5924;51.398;7.088;2022-10-19T10:08:23;11.40;99.90
11736;DHT22;5924;51.398;7.088;2022-10-19T10:11:10;10.60;99.90
11736;DHT22;5924;51.398;7.088;2022-10-19T10:13:47;11.60;99.90
11736;DHT22;5924;51.398;7.088;2022-10-19T10:16:15;11.70;99.90
11736;DHT22;5924;51.398;7.088;2022-10-19T10:18:59;11.80;99.90
11736;DHT22;5924;51.398;7.088;2022-10-19T10:21:30;11.90;99.90
11736;DHT22;5924;51.398;7.088;2022-10-19T10:24:02;12.00;99.90
11736;DHT22;5924;51.398;7.088;2022-10-19T10:26:30;12.20;99.90
11736;DHT22;5924;51.398;7.088;2022-10-19T10:28:56;12.30;99.90
11736;DHT22;5924;51.398;7.088;2022-10-19T10:31:24;12.40;99.90
11736;DHT22;5924;51.398;7.088;2022-10-19T10:34:18;12.40;99.90
11736;DHT22;5924;51.398;7.088;2022-10-19T10:36:49;12.40;99.90
11736;DHT22;5924;51.398;7.088;2022-10-19T10:39:16;12.40;99.90
11736;DHT22;5924;51.398;7.088;2022-10-19T10:41:43;12.50;99.90
11736;DHT22;5924;51.398;7.088;2022-10-19T10:44:36;12.60;99.90
11736;DHT22;5924;51.398;7.088;2022-10-19T10:47:05;12.80;99.90
11736;DHT22;5924;51.398;7.088;2022-10-19T10:49:39;12.90;99.90
11736;DHT22;5924;51.398;7.088;2022-10-19T10:52:11;13.00;99.90
11736;DHT22;5924;51.398;7.088;2022-10-19T10:54:37;13.10;99.90
11736;DHT22;5924;51.398;7.088;2022-10-19T10:57:13;13.20;99.90
11736;DHT22;5924;51.398;7.088;2022-10-19T11:05:07;13.50;99.90
11736;DHT22;5924;51.398;7.088;2022-10-19T11:07:35;13.60;99.90
11736;DHT22;5924;51.398;7.088;2022-10-19T11:13:17;13.70;1.00
11736;DHT22;5924;51.398;7.088;2022-10-19T11:18:35;13.90;99.90
11736;DHT22;5924;51.398;7.088;2022-10-19T11:21:36;14.00;99.90
11736;DHT22;5924;51.398;7.088;2022-10-19T11:32:37;14.40;99.90
11736;DHT22;5924;51.398;7.088;2022-10-19T11:40:47;14.60;99.90
11736;DHT22;5924;51.398;7.088;2022-10-19T11:43:26;14.60;99.90
11736;DHT22;5924;51.398;7.088;2022-10-19T11:46:16;14.60;99.90
11736;DHT22;5924;51.398;7.088;2022-10-19T11:51:33;14.80;99.90
11736;DHT22;5924;51.398;7.088;2022-10-19T11:57:15;15.00;99.90
11736;DHT22;5924;51.398;7.088;2022-10-19T12:06:19;15.20;99.90
11736;DHT22;5924;51.398;7.088;2022-10-19T12:08:27;15.40;99.90
11736;DHT22;5924;51.398;7.088;2022-10-19T12:11:02;15.50;99.90
11736;DHT22;5924;51.398;7.088;2022-10-19T12:13:39;15.70;99.90
11736;DHT22;5924;51.398;7.088;2022-10-19T12:16:08;16.10;99.90
11736;DHT22;5924;51.398;7.088;2022-10-19T12:18:42;16.30;99.90
11736;DHT22;5924;51.398;7.088;2022-10-19T12:21:30;16.40;99.90
11736;DHT22;5924;51.398;7.088;2022-10-19T12:24:00;16.30;99.90
11736;DHT22;5924;51.398;7.088;2022-10-19T12:26:30;16.40;99.90
11736;DHT22;5924;51.398;7.088;2022-10-19T12:29:05;16.90;99.90
11736;DHT22;5924;51.398;7.088;2022-10-19T12:31:32;17.60;99.90
11736;DHT22;5924;51.398;7.088;2022-10-19T12:36:49;18.90;99.90
11736;DHT22;5924;51.398;7.088;2022-10-19T12:39:30;18.90;99.90
11736;DHT22;5924;51.398;7.088;2022-10-19T12:47:28;19.80;99.90
11736;DHT22;5924;51.398;7.088;2022-10-19T12:49:54;20.10;99.90
11736;DHT22;5924;51.398;7.088;2022-10-19T12:52:42;19.80;99.90
11736;DHT22;5924;51.398;7.088;2022-10-19T12:55:11;19.80;99.90
11736;DHT22;5924;51.398;7.088;2022-10-19T12:57:38;19.50;99.90
11736;DHT22;5924;51.398;7.088;2022-10-19T13:00:17;19.20;99.90
11736;DHT22;5924;51.398;7.088;2022-10-19T13:02:45;18.70;99.90
11736;DHT22;5924;51.398;7.088;2022-10-19T13:05:22;18.30;99.90
11736;DHT22;5924;51.398;7.088;2022-10-19T13:07:49;18.00;99.90
11736;DHT22;5924;51.398;7.088;2022-10-19T13:10:23;17.70;99.90
11736;DHT22;5924;51.398;7.088;2022-10-19T13:12:50;17.40;99.90
11736;DHT22;5924;51.398;7.088;2022-10-19T13:18:11;17.10;99.90
11736;DHT22;5924;51.398;7.088;2022-10-19T13:20:45;17.00;99.90
11736;DHT22;5924;51.398;7.088;2022-10-19T13:25:41;16.80;99.90
11736;DHT22;5924;51.398;7.088;2022-10-19T13:43:24;16.40;99.90
11736;DHT22;5924;51.398;7.088;2022-10-19T13:45:59;16.30;99.90
11736;DHT22;5924;51.398;7.088;2022-10-19T13:48:48;16.30;99.90
11736;DHT22;5924;51.398;7.088;2022-10-19T14:11:01;15.90;99.90
11736;DHT22;5924;51.398;7.088;2022-10-19T14:13:28;15.80;99.90
11736;DHT22;5924;51.398;7.088;2022-10-19T14:15:56;15.80;99.90
11736;DHT22;5924;51.398;7.088;2022-10-19T14:18:28;15.80;99.90
11736;DHT22;5924;51.398;7.088;2022-10-19T14:21:03;15.70;99.90
11736;DHT22;5924;51.398;7.088;2022-10-19T14:23:32;15.70;99.90
11736;DHT22;5924;51.398;7.088;2022-10-19T14:26:04;15.60;99.90
11736;DHT22;5924;51.398;7.088;2022-10-19T14:28:31;15.60;99.90
11736;DHT22;5924;51.398;7.088;2022-10-19T14:31:09;15.50;99.90
11736;DHT22;5924;51.398;7.088;2022-10-19T14:33:40;15.50;99.90
11736;DHT22;5924;51.398;7.088;2022-10-19T14:36:16;15.50;99.90
11736;DHT22;5924;51.398;7.088;2022-10-19T14:38:43;15.50;99.90
11736;DHT22;5924;51.398;7.088;2022-10-19T14:43:54;15.50;99.90
11736;DHT22;5924;51.398;7.088;2022-10-19T14:46:20;14.50;99.90
11736;DHT22;5924;51.398;7.088;2022-10-19T14:48:47;15.30;99.90
11736;DHT22;5924;51.398;7.088;2022-10-19T14:54:29;15.30;99.90
11736;DHT22;5924;51.398;7.088;2022-10-19T15:00:03;15.20;99.90
11736;DHT22;5924;51.398;7.088;2022-10-19T15:02:35;15.10;99.90
11736;DHT22;5924;51.398;7.088;2022-10-19T15:05:02;15.10;99.90
11736;DHT22;5924;51.398;7.088;2022-10-19T15:07:40;15.00;99.90
11736;DHT22;5924;51.398;7.088;2022-10-19T15:12:43;14.80;99.90
11736;DHT22;5924;51.398;7.088;2022-10-19T15:15:19;14.70;99.90
11736;DHT22;5924;51.398;7.088;2022-10-19T15:20:33;14.40;99.90
11736;DHT22;5924;51.398;7.088;2022-10-19T15:23:00;14.40;99.90
11736;DHT22;5924;51.398;7.088;2022-10-19T15:27:54;14.20;99.90
11736;DHT22;5924;51.398;7.088;2022-10-19T15:30:27;14.20;99.90
11736;DHT22;5924;51.398;7.088;2022-10-19T15:38:02;14.10;99.90
11736;DHT22;5924;51.398;7.088;2022-10-19T15:40:32;14.00;99.90
11736;DHT22;5924;51.398;7.088;2022-10-19T15:42:59;14.00;99.90
11736;DHT22;5924;51.398;7.088;2022-10-19T15:50:49;13.80;99.90
11736;DHT22;5924;51.398;7.088;2022-10-19T15:53:17;13.70;99.90
11736;DHT22;5924;51.398;7.088;2022-10-19T15:55:43;13.60;99.90
11736;DHT22;5924;51.398;7.088;2022-10-19T15:58:12;13.60;99.90
11736;DHT22;5924;51.398;7.088;2022-10-19T16:00:39;13.50;99.90
11736;DHT22;5924;51.398;7.088;2022-10-19T16:03:05;13.50;99.90
11736;DHT22;5924;51.398;7.088;2022-10-19T16:05:33;13.40;99.90
11736;DHT22;5924;51.398;7.088;2022-10-19T16:07:59;13.30;99.90
11736;DHT22;5924;51.398;7.088;2022-10-19T16:10:26;13.10;99.90
11736;DHT22;5924;51.398;7.088;2022-10-19T16:12:52;13.00;99.90
11736;DHT22;5924;51.398;7.088;2022-10-19T16:15:20;12.80;99.90
11736;DHT22;5924;51.398;7.088;2022-10-19T16:17:56;12.60;99.90
11736;DHT22;5924;51.398;7.088;2022-10-19T16:20:23;12.40;99.90
11736;DHT22;5924;51.398;7.088;2022-10-19T16:22:49;12.20;99.90
11736;DHT22;5924;51.398;7.088;2022-10-19T16:25:15;12.00;99.90
11736;DHT22;5924;51.398;7.088;2022-10-19T16:27:41;11.90;99.90
11736;DHT22;5924;51.398;7.088;2022-10-19T16:30:07;11.70;99.90
11736;DHT22;5924;51.398;7.088;2022-10-19T16:32:33;11.50;99.90
11736;DHT22;5924;51.398;7.088;2022-10-19T16:34:59;11.30;99.90
11736;DHT22;5924;51.398;7.088;2022-10-19T16:37:24;11.10;99.90
11736;DHT22;5924;51.398;7.088;2022-10-19T16:39:50;11.00;99.90
11736;DHT22;5924;51.398;7.088;2022-10-19T16:42:15;10.90;99.90
11736;DHT22;5924;51.398;7.088;2022-10-19T16:44:42;10.80;99.90
11736;DHT22;5924;51.398;7.088;2022-10-19T16:47:08;10.60;99.90
11736;DHT22;5924;51.398;7.088;2022-10-19T16:49:34;10.60;99.90
11736;DHT22;5924;51.398;7.088;2022-10-19T16:51:59;10.40;99.90
11736;DHT22;5924;51.398;7.088;2022-10-19T16:54:26;10.30;99.90
11736;DHT22;5924;51.398;7.088;2022-10-19T16:56:54;10.20;99.90
11736;DHT22;5924;51.398;7.088;2022-10-19T16:59:20;10.20;99.90
11736;DHT22;5924;51.398;7.088;2022-10-19T17:01:45;10.20;99.90
11736;DHT22;5924;51.398;7.088;2022-10-19T17:04:12;10.10;99.90
11736;DHT22;5924;51.398;7.088;2022-10-19T17:06:38;10.00;99.90
11736;DHT22;5924;51.398;7.088;2022-10-19T17:09:05;10.00;99.90
11736;DHT22;5924;51.398;7.088;2022-10-19T17:11:36;10.00;99.90
11736;DHT22;5924;51.398;7.088;2022-10-19T17:14:09;10.00;99.90
11736;DHT22;5924;51.398;7.088;2022-10-19T17:16:35;10.00;99.90
11736;DHT22;5924;51.398;7.088;2022-10-19T17:19:03;10.00;99.90
11736;DHT22;5924;51.398;7.088;2022-10-19T17:21:31;9.90;99.90
11736;DHT22;5924;51.398;7.088;2022-10-19T17:23:59;9.90;99.90
11736;DHT22;5924;51.398;7.088;2022-10-19T17:26:26;9.80;99.90
11736;DHT22;5924;51.398;7.088;2022-10-19T17:28:53;9.70;99.90
11736;DHT22;5924;51.398;7.088;2022-10-19T17:31:19;9.70;99.90
11736;DHT22;5924;51.398;7.088;2022-10-19T17:33:44;9.60;99.90
11736;DHT22;5924;51.398;7.088;2022-10-19T17:36:13;11.20;99.90
11736;DHT22;5924;51.398;7.088;2022-10-19T17:38:40;9.50;99.90
11736;DHT22;5924;51.398;7.088;2022-10-19T17:41:10;9.50;99.90
11736;DHT22;5924;51.398;7.088;2022-10-19T17:43:39;9.40;99.90
11736;DHT22;5924;51.398;7.088;2022-10-19T17:46:06;9.40;99.90
11736;DHT22;5924;51.398;7.088;2022-10-19T17:48:34;9.30;99.90
11736;DHT22;5924;51.398;7.088;2022-10-19T17:51:01;9.30;99.90
11736;DHT22;5924;51.398;7.088;2022-10-19T17:53:28;9.20;99.90
11736;DHT22;5924;51.398;7.088;2022-10-19T17:55:57;9.10;99.90
11736;DHT22;5924;51.398;7.088;2022-10-19T17:58:23;9.10;99.90
11736;DHT22;5924;51.398;7.088;2022-10-19T18:00:53;9.00;99.90
11736;DHT22;5924;51.398;7.088;2022-10-19T18:03:18;9.00;99.90
11736;DHT22;5924;51.398;7.088;2022-10-19T18:05:44;9.00;99.90
11736;DHT22;5924;51.398;7.088;2022-10-19T18:08:19;9.00;99.90
11736;DHT22;5924;51.398;7.088;2022-10-19T18:10:44;9.00;99.90
11736;DHT22;5924;51.398;7.088;2022-10-19T18:13:10;9.00;99.90
11736;DHT22;5924;51.398;7.088;2022-10-19T18:15:35;9.00;99.90
11736;DHT22;5924;51.398;7.088;2022-10-19T18:18:01;8.90;99.90
11736;DHT22;5924;51.398;7.088;2022-10-19T18:20:27;9.00;99.90
11736;DHT22;5924;51.398;7.088;2022-10-19T18:22:52;8.90;99.90
11736;DHT22;5924;51.398;7.088;2022-10-19T18:25:18;8.90;99.90
11736;DHT22;5924;51.398;7.088;2022-10-19T18:27:43;8.90;99.90
11736;DHT22;5924;51.398;7.088;2022-10-19T18:30:09;8.90;99.90
11736;DHT22;5924;51.398;7.088;2022-10-19T18:32:35;8.90;99.90
11736;DHT22;5924;51.398;7.088;2022-10-19T18:35:01;8.80;99.90
11736;DHT22;5924;51.398;7.088;2022-10-19T18:37:26;8.90;99.90
11736;DHT22;5924;51.398;7.088;2022-10-19T18:39:52;8.80;99.90
11736;DHT22;5924;51.398;7.088;2022-10-19T18:42:17;8.80;99.90
11736;DHT22;5924;51.398;7.088;2022-10-19T18:44:43;8.80;99.90
11736;DHT22;5924;51.398;7.088;2022-10-19T18:47:09;8.80;99.90
11736;DHT22;5924;51.398;7.088;2022-10-19T18:49:36;8.70;99.90
11736;DHT22;5924;51.398;7.088;2022-10-19T18:52:01;8.70;99.90
11736;DHT22;5924;51.398;7.088;2022-10-19T18:54:27;8.60;99.90